Airfield :
LOGIN :

Register | Disclaimer

   EN    FR    IT 

 










Legend :    VFR   Marginal VFR   IFR   Intensive IFR   Very Intensive IFR
Visi :
Ceiling :
>= 8 km
>= 3000ft
5 to 8 km
1000 to 3000 ft
1500m to 5 km
500 to 1000 ft
800 to 1500m
200 to 500 ft
< 800m
< 200 ft
Symbols :   Thunderstorms  Fog  Heavy snow  Heavy precipitations  Wind > 20 kt
SIGMETs :     Misc.  Thunderstorms  Icing  Turbulence  Mountain Waves  Volcanic Ashes






- Airport Elevation : 622 ft
- IATA code : BRS


EGGD - Bristol Int.

CURRENT METAR :
  • 260250Z AUTO 22006KT 9999 NCD 03/M01 Q1016

EXPIRED METARs :
  • 260220Z AUTO 21006KT 9999 NCD 03/M01 Q1016
  • 260150Z AUTO 22006KT 9999 NCD 03/M02 Q1016
  • 260120Z AUTO 22007KT 9999 NCD 02/M02 Q1016
  • 260050Z AUTO 22007KT 9999 FEW028 02/M02 Q1016
  • 260020Z AUTO 23007KT 9999 SCT028 BKN035 02/M01 Q1016

TAF TAF EGGD
Valid from the 26 at 00:00 until the 27 at 00:00 UTC


252257Z 2600/2624 20007KT 9999 SCT025
BECMG 2605/2608 8000 -RA BKN007
TEMPO 2607/2618 3000 RADZ BR BKN004
TEMPO 2612/2618 18015G25KT
PROB40
TEMPO 2615/2618 0300 FG BKN001
BECMG 2618/2621 27010KT 0200 -DZ FG VV///
TEMPO 2618/2624 DZ
ATIS : +44 1275 473 666



MET'MAP, your aeronautical weather chart ! - Copyright ORBIFLY December 2007 - Disclaimer

ORBIFLY MET'MAP TEAM :

Programming & Development : Alexandra Zaïnal
Concept & original design : Baudouin d'Aumeries
Assistance for programming : Marc-Olivier Méhu
Technical & hardware support : Manuel Goepfert

Contact : metmap@orbifly.com




SOURCES & CREDITS :

   NOAA